createdAt,value
2022-12-19T00:00:50.323Z,83.73
2022-12-19T00:03:26.687Z,83.68
2022-12-19T00:05:54.505Z,83.60
2022-12-19T00:08:22.194Z,83.33
2022-12-19T00:10:59.485Z,83.57
2022-12-19T00:13:33.646Z,83.68
2022-12-19T00:16:13.563Z,83.22
2022-12-19T00:18:43.032Z,83.33
2022-12-19T00:21:13.316Z,83.58
2022-12-19T00:23:41.369Z,83.33
2022-12-19T00:26:12.898Z,83.19
2022-12-19T00:28:43.117Z,83.38
2022-12-19T00:31:11.805Z,84.00
2022-12-19T00:33:43.294Z,83.46
2022-12-19T00:36:20.967Z,84.00
2022-12-19T00:38:53.324Z,84.07
2022-12-19T00:41:25.539Z,83.96
2022-12-19T00:43:57.058Z,84.28
2022-12-19T00:46:26.033Z,84.06
2022-12-19T00:48:54.571Z,83.87
2022-12-19T00:51:25.046Z,83.98
2022-12-19T00:53:55.305Z,84.03
2022-12-19T00:56:59.931Z,84.01
2022-12-19T00:59:29.889Z,84.11
2022-12-19T01:02:03.125Z,83.92
2022-12-19T01:04:35.662Z,83.41
2022-12-19T01:07:12.226Z,83.75
2022-12-19T01:09:40.131Z,84.26
2022-12-19T01:12:26.992Z,84.15
2022-12-19T01:14:57.725Z,83.92
2022-12-19T01:17:43.616Z,83.67
2022-12-19T01:20:16.453Z,84.36
2022-12-19T01:22:45.590Z,83.42
2022-12-19T01:25:15.152Z,84.34
2022-12-19T01:27:43.008Z,83.98
2022-12-19T01:30:11.698Z,83.68
2022-12-19T01:32:40.818Z,83.42
2022-12-19T01:35:09.957Z,83.48
2022-12-19T01:37:51.169Z,83.64
2022-12-19T01:40:21.397Z,83.53
2022-12-19T01:42:50.138Z,83.58
2022-12-19T01:45:31.843Z,83.59
2022-12-19T01:48:13.940Z,83.38
2022-12-19T01:51:01.016Z,83.79
2022-12-19T01:53:48.816Z,83.65
2022-12-19T01:56:24.635Z,83.68
2022-12-19T01:59:06.000Z,83.99
2022-12-19T02:01:51.079Z,83.70
2022-12-19T02:04:20.369Z,84.13
2022-12-19T02:06:49.007Z,84.11
2022-12-19T02:09:17.700Z,84.25
2022-12-19T02:11:48.633Z,83.95
2022-12-19T02:14:16.809Z,84.41
2022-12-19T02:17:11.027Z,84.20
2022-12-19T02:20:11.517Z,84.49
2022-12-19T02:23:01.435Z,84.48
2022-12-19T02:25:51.258Z,84.66
2022-12-19T02:29:01.419Z,84.49
2022-12-19T02:36:05.808Z,84.96
2022-12-19T02:39:29.712Z,84.10
2022-12-19T02:42:32.081Z,84.04
2022-12-19T02:45:28.931Z,84.27
2022-12-19T02:48:38.823Z,84.15
2022-12-19T02:51:08.527Z,83.42
2022-12-19T02:54:29.985Z,83.06
2022-12-19T02:57:55.244Z,83.80
2022-12-19T03:00:28.747Z,83.50
2022-12-19T03:03:50.381Z,83.86
2022-12-19T03:06:56.087Z,83.43
2022-12-19T03:16:23.147Z,83.10
2022-12-19T03:18:59.755Z,83.26
2022-12-19T03:39:34.572Z,84.61
2022-12-19T03:42:11.482Z,84.19
2022-12-19T03:45:10.352Z,84.35
2022-12-19T03:47:51.077Z,83.83
2022-12-19T03:50:55.182Z,83.90
2022-12-19T03:53:54.988Z,83.70
2022-12-19T03:57:09.098Z,83.83
2022-12-19T04:00:13.238Z,83.35
2022-12-19T04:03:32.030Z,83.06
2022-12-19T04:06:12.403Z,83.26
2022-12-19T04:09:16.768Z,83.00
2022-12-19T04:15:42.596Z,83.00
2022-12-19T04:24:15.631Z,82.88
2022-12-19T04:26:37.563Z,82.97
2022-12-19T04:29:38.532Z,83.17
2022-12-19T04:32:25.619Z,83.39
2022-12-19T04:38:36.588Z,82.99
2022-12-19T04:41:04.671Z,83.54
2022-12-19T04:43:32.434Z,83.40
2022-12-19T04:46:00.446Z,83.27
2022-12-19T04:48:28.465Z,83.31
2022-12-19T04:50:56.680Z,83.52
2022-12-19T04:53:24.506Z,83.49
2022-12-19T04:56:00.790Z,83.14
2022-12-19T04:58:29.529Z,83.09
2022-12-19T05:01:03.089Z,83.52
2022-12-19T05:03:30.979Z,83.27
2022-12-19T05:06:13.900Z,83.21
2022-12-19T05:08:42.953Z,82.82
2022-12-19T05:11:17.520Z,83.08
2022-12-19T05:13:50.020Z,83.49
2022-12-19T05:16:18.554Z,83.32
2022-12-19T05:18:46.584Z,83.00
2022-12-19T05:21:14.490Z,83.62
2022-12-19T05:23:42.755Z,83.44
2022-12-19T05:26:11.963Z,82.97
2022-12-19T05:28:39.880Z,83.78
2022-12-19T05:31:12.316Z,83.33
2022-12-19T05:33:41.795Z,83.27
2022-12-19T05:36:10.958Z,82.55
2022-12-19T05:38:38.798Z,83.03
2022-12-19T05:41:09.059Z,82.94
2022-12-19T05:43:37.308Z,82.81
2022-12-19T05:46:07.068Z,83.07
2022-12-19T05:48:36.610Z,82.78
2022-12-19T05:51:05.125Z,83.11
2022-12-19T05:53:36.572Z,83.36
2022-12-19T05:56:08.701Z,83.02
2022-12-19T05:58:37.317Z,82.73
2022-12-19T06:01:09.246Z,82.87
2022-12-19T06:03:37.510Z,82.82
2022-12-19T06:06:09.586Z,83.09
2022-12-19T06:08:37.608Z,83.19
2022-12-19T06:11:07.336Z,83.10
2022-12-19T06:13:36.613Z,82.90
2022-12-19T06:16:07.738Z,83.39
2022-12-19T06:18:40.428Z,82.77
2022-12-19T06:21:14.595Z,83.23
2022-12-19T06:23:43.401Z,83.18
2022-12-19T06:26:18.520Z,83.59
2022-12-19T06:28:48.998Z,83.60
2022-12-19T06:31:17.973Z,83.60
2022-12-19T06:33:46.005Z,83.36
2022-12-19T06:36:20.004Z,83.60
2022-12-19T06:38:48.595Z,83.31
2022-12-19T06:41:27.645Z,82.91
2022-12-19T06:44:04.964Z,82.19
2022-12-19T06:46:33.176Z,82.32
2022-12-19T06:49:01.374Z,82.62
2022-12-19T06:51:29.761Z,82.62
2022-12-19T06:53:57.729Z,82.61
2022-12-19T06:56:25.775Z,82.32
2022-12-19T06:58:56.668Z,82.29
2022-12-19T07:01:41.200Z,81.83
2022-12-19T07:04:11.503Z,81.99
2022-12-19T07:06:42.345Z,82.26
2022-12-19T07:09:12.573Z,82.63
2022-12-19T07:11:41.071Z,82.64
2022-12-19T07:14:08.824Z,82.52
2022-12-19T07:16:43.183Z,82.95
2022-12-19T07:20:07.296Z,82.63
2022-12-19T07:27:39.224Z,83.81
2022-12-19T07:30:13.013Z,84.60
2022-12-19T07:32:43.828Z,84.71
2022-12-19T07:35:25.728Z,84.37
2022-12-19T07:38:02.587Z,84.43
2022-12-19T07:40:30.571Z,84.31
2022-12-19T07:43:00.949Z,84.45
2022-12-19T07:45:32.758Z,84.96
2022-12-19T07:48:04.811Z,84.95
2022-12-19T07:50:40.686Z,84.81
2022-12-19T07:53:10.675Z,84.86
2022-12-19T07:55:38.637Z,85.09
2022-12-19T07:58:06.546Z,84.70
2022-12-19T08:00:35.793Z,84.89
2022-12-19T08:03:04.400Z,84.87
2022-12-19T08:05:34.901Z,84.53
2022-12-19T08:08:03.313Z,84.36
2022-12-19T08:10:31.184Z,83.97
2022-12-19T08:12:59.020Z,84.22
2022-12-19T08:15:27.476Z,84.17
2022-12-19T08:17:55.905Z,83.83
2022-12-19T08:20:23.742Z,83.62
2022-12-19T08:22:51.604Z,83.88
2022-12-19T08:25:19.495Z,84.01
2022-12-19T08:27:47.249Z,83.54
2022-12-19T08:30:15.271Z,83.23
2022-12-19T08:32:45.259Z,83.34
2022-12-19T08:35:13.312Z,82.61
2022-12-19T08:37:41.375Z,82.81
2022-12-19T08:40:11.349Z,82.71
2022-12-19T08:42:39.177Z,83.14
2022-12-19T08:45:09.413Z,82.89
2022-12-19T08:47:37.278Z,83.11
2022-12-19T08:50:05.599Z,83.02
2022-12-19T08:52:35.733Z,82.89
2022-12-19T08:55:04.685Z,83.03
2022-12-19T08:57:31.592Z,82.71
2022-12-19T08:59:59.423Z,82.62
2022-12-19T09:02:28.473Z,82.47
2022-12-19T09:05:58.291Z,82.75
2022-12-19T09:07:44.698Z,82.58
2022-12-19T09:10:12.504Z,82.70
2022-12-19T09:12:40.356Z,82.45
2022-12-19T09:15:08.609Z,82.48
2022-12-19T09:17:37.050Z,82.43
2022-12-19T09:20:05.656Z,82.82
2022-12-19T09:22:33.585Z,82.63
2022-12-19T09:25:01.353Z,82.54
2022-12-19T09:27:29.196Z,82.29
2022-12-19T09:29:57.091Z,82.13
2022-12-19T09:32:24.949Z,82.02
2022-12-19T09:34:52.738Z,81.99
2022-12-19T09:37:20.715Z,82.11
2022-12-19T09:39:50.552Z,81.65
2022-12-19T09:42:50.131Z,81.08
2022-12-19T09:45:38.594Z,80.69
2022-12-19T09:48:22.465Z,80.86
2022-12-19T09:51:09.521Z,80.72
2022-12-19T09:53:58.600Z,80.52
2022-12-19T09:56:45.146Z,79.62
2022-12-19T09:59:34.259Z,79.79
2022-12-19T10:02:33.812Z,78.93
2022-12-19T10:05:14.304Z,78.53
2022-12-19T10:08:09.446Z,78.61
2022-12-19T10:12:36.267Z,78.18
2022-12-19T10:14:11.100Z,77.75
2022-12-19T10:17:23.560Z,77.21
2022-12-19T10:20:13.384Z,75.83
2022-12-19T10:23:19.653Z,76.40
2022-12-19T10:26:06.425Z,74.62
2022-12-19T10:29:01.253Z,72.79
2022-12-19T10:31:57.543Z,72.77
2022-12-19T10:34:38.495Z,71.93
2022-12-19T10:37:29.629Z,67.06
2022-12-19T10:40:27.978Z,68.17
2022-12-19T10:43:21.629Z,68.08
2022-12-19T10:46:02.949Z,67.17
2022-12-19T10:48:31.901Z,65.58
2022-12-19T10:51:06.078Z,64.80
2022-12-19T10:53:34.545Z,64.24
2022-12-19T10:56:16.133Z,63.96
2022-12-19T10:58:46.292Z,63.32
2022-12-19T11:01:31.911Z,65.12
2022-12-19T11:04:30.251Z,63.95
2022-12-19T11:07:18.943Z,63.81
2022-12-19T11:09:53.782Z,60.05
2022-12-19T11:15:25.651Z,57.41
2022-12-19T11:16:22.940Z,58.13
2022-12-19T11:26:32.509Z,57.78
2022-12-19T11:29:44.346Z,56.47
2022-12-19T11:30:37.983Z,56.73
2022-12-19T11:30:47.266Z,57.31
2022-12-19T11:33:18.883Z,56.82
2022-12-19T11:35:55.086Z,54.78
2022-12-19T11:38:42.149Z,55.48
2022-12-19T11:41:17.299Z,55.03
2022-12-19T11:43:59.043Z,53.28
2022-12-19T11:46:40.598Z,52.89
2022-12-19T11:49:27.103Z,53.20
2022-12-19T11:51:57.724Z,50.10
2022-12-19T11:55:02.001Z,49.41
2022-12-19T11:57:30.119Z,50.73
2022-12-19T12:00:05.475Z,47.40
2022-12-19T12:03:06.197Z,47.25
2022-12-19T12:06:26.653Z,44.68
2022-12-19T12:11:47.622Z,46.42
2022-12-19T12:18:53.376Z,46.02
2022-12-19T12:23:27.186Z,45.12
2022-12-19T12:30:59.575Z,45.60
2022-12-19T12:31:15.426Z,42.77
2022-12-19T12:31:55.169Z,42.57
2022-12-19T12:32:05.068Z,41.98
2022-12-19T12:35:38.190Z,40.69
2022-12-19T12:35:51.084Z,42.31
2022-12-19T12:38:22.999Z,40.29
2022-12-19T12:41:21.647Z,41.72
2022-12-19T12:44:08.541Z,40.27
2022-12-19T12:47:01.553Z,41.24
2022-12-19T12:49:45.320Z,40.16
2022-12-19T12:52:18.736Z,40.77
2022-12-19T12:54:55.390Z,41.19
2022-12-19T12:57:36.865Z,40.50
2022-12-19T13:00:22.297Z,38.52
2022-12-19T13:03:09.899Z,39.57
2022-12-19T13:06:33.172Z,40.25
2022-12-19T13:09:28.515Z,40.01
2022-12-19T13:12:19.638Z,40.00
2022-12-19T13:15:17.055Z,39.05
2022-12-19T13:19:28.273Z,37.54
2022-12-19T13:22:26.433Z,37.61
2022-12-19T13:25:29.400Z,36.97
2022-12-19T13:28:59.981Z,37.04
2022-12-19T13:32:23.318Z,37.92
2022-12-19T13:39:51.037Z,37.92
2022-12-19T13:45:15.110Z,38.91
2022-12-19T13:48:04.187Z,38.76
2022-12-19T13:51:54.482Z,38.64
2022-12-19T13:57:09.280Z,40.43
2022-12-19T14:00:18.056Z,41.65
2022-12-19T14:03:37.838Z,44.60
2022-12-19T14:07:51.706Z,45.70
2022-12-19T14:11:35.089Z,49.02
2022-12-19T14:14:28.093Z,50.05
2022-12-19T14:17:42.393Z,55.82
2022-12-19T14:22:01.868Z,56.87
2022-12-19T14:23:44.256Z,59.66
2022-12-19T14:28:17.936Z,63.09
2022-12-19T14:30:26.129Z,62.84
2022-12-19T14:33:44.055Z,61.91
2022-12-19T14:36:06.874Z,62.35
2022-12-19T14:39:36.685Z,60.76
2022-12-19T14:43:57.044Z,61.81
2022-12-19T14:54:05.913Z,66.97
2022-12-19T14:54:33.979Z,65.85
2022-12-19T14:57:03.806Z,64.99
2022-12-19T14:59:48.031Z,65.69
2022-12-19T15:02:34.359Z,64.17
2022-12-19T15:05:36.497Z,64.74
2022-12-19T15:08:17.252Z,70.69
2022-12-19T15:11:34.891Z,73.54
2022-12-19T15:14:54.786Z,72.98
2022-12-19T15:17:44.372Z,74.78
2022-12-19T15:20:29.375Z,76.66
2022-12-19T15:23:04.839Z,73.37
2022-12-19T15:26:07.688Z,75.74
2022-12-19T15:28:41.923Z,77.53
2022-12-19T15:31:38.572Z,77.55
2022-12-19T15:34:38.374Z,77.60
2022-12-19T15:37:23.245Z,74.73
2022-12-19T15:39:55.404Z,74.42
2022-12-19T15:43:29.959Z,78.57
2022-12-19T15:46:16.671Z,76.71
2022-12-19T15:50:18.351Z,78.88
2022-12-19T15:57:09.627Z,77.05
2022-12-19T16:06:30.135Z,81.90
2022-12-19T16:08:58.513Z,81.93
2022-12-19T16:11:26.344Z,79.81
2022-12-19T16:13:57.983Z,80.24
2022-12-19T16:16:25.827Z,80.18
2022-12-19T16:18:53.712Z,79.02
2022-12-19T16:21:31.542Z,77.96
2022-12-19T16:24:01.702Z,81.84
2022-12-19T16:26:40.331Z,82.06
2022-12-19T16:29:20.335Z,82.18
2022-12-19T16:31:48.725Z,80.11
2022-12-19T16:34:19.589Z,79.10
2022-12-19T16:36:47.924Z,81.33
2022-12-19T16:39:16.459Z,83.05
2022-12-19T16:41:45.430Z,82.08
2022-12-19T16:44:19.927Z,81.85
2022-12-19T16:46:51.270Z,84.93
2022-12-19T16:49:23.505Z,83.89
2022-12-19T16:51:52.107Z,84.56
2022-12-19T16:54:20.196Z,83.38
2022-12-19T16:56:51.608Z,84.36
2022-12-19T16:59:25.718Z,82.46
2022-12-19T17:01:54.135Z,81.73
2022-12-19T17:04:24.528Z,81.24
2022-12-19T17:06:54.254Z,82.80
2022-12-19T17:09:24.494Z,82.27
2022-12-19T17:11:58.016Z,84.27
2022-12-19T17:14:29.631Z,84.43
2022-12-19T17:16:59.465Z,83.15
2022-12-19T17:19:35.928Z,82.03
2022-12-19T17:22:03.694Z,82.72
2022-12-19T17:24:31.494Z,84.28
2022-12-19T17:26:59.199Z,84.01
2022-12-19T17:29:26.963Z,83.34
2022-12-19T17:31:55.301Z,83.53
2022-12-19T17:34:30.356Z,82.60
2022-12-19T17:37:00.548Z,81.36
2022-12-19T17:39:31.974Z,80.74
2022-12-19T17:42:06.795Z,80.23
2022-12-19T17:44:34.512Z,79.83
2022-12-19T17:47:02.386Z,79.56
2022-12-19T17:49:31.649Z,79.32
2022-12-19T17:52:00.257Z,78.85
2022-12-19T17:54:27.972Z,78.23
2022-12-19T17:56:55.861Z,78.27
2022-12-19T17:59:23.618Z,78.05
2022-12-19T18:01:51.717Z,77.61
2022-12-19T18:04:21.573Z,77.40
2022-12-19T18:06:49.564Z,77.23
2022-12-19T18:09:20.395Z,76.79
2022-12-19T18:11:49.593Z,77.00
2022-12-19T18:14:18.391Z,76.88
2022-12-19T18:16:49.134Z,76.72
2022-12-19T18:19:23.450Z,76.80
2022-12-19T18:21:51.915Z,76.55
2022-12-19T18:24:19.754Z,76.60
2022-12-19T18:26:47.827Z,76.68
2022-12-19T18:29:16.607Z,76.49
2022-12-19T18:31:50.469Z,76.45
2022-12-19T18:34:22.955Z,76.59
2022-12-19T18:36:51.867Z,76.54
2022-12-19T18:39:29.105Z,76.45
2022-12-19T18:41:56.862Z,76.84
2022-12-19T18:44:24.661Z,78.13
2022-12-19T18:46:52.971Z,78.43
2022-12-19T18:49:20.964Z,78.17
2022-12-19T18:51:48.779Z,78.30
2022-12-19T18:54:20.084Z,78.33
2022-12-19T18:56:48.432Z,78.13
2022-12-19T18:59:16.200Z,78.32
2022-12-19T19:01:47.837Z,77.99
2022-12-19T19:04:17.770Z,78.17
2022-12-19T19:06:51.706Z,78.21
2022-12-19T19:09:21.358Z,78.30
2022-12-19T19:12:09.113Z,78.02
2022-12-19T19:14:36.944Z,77.86
2022-12-19T19:17:06.409Z,78.11
2022-12-19T19:19:34.253Z,78.41
2022-12-19T19:22:02.120Z,78.60
2022-12-19T19:24:30.080Z,78.41
2022-12-19T19:26:57.850Z,78.37
2022-12-19T19:29:26.114Z,78.27
2022-12-19T19:31:53.971Z,78.17
2022-12-19T19:34:27.439Z,78.05
2022-12-19T19:36:59.115Z,77.52
2022-12-19T19:39:28.529Z,77.70
2022-12-19T19:41:56.446Z,77.55
2022-12-19T19:44:24.273Z,77.23
2022-12-19T19:46:52.102Z,77.16
2022-12-19T19:49:20.862Z,77.27
2022-12-19T19:51:48.649Z,76.94
2022-12-19T19:54:16.599Z,76.94
2022-12-19T19:56:44.298Z,76.80
2022-12-19T19:59:12.149Z,76.71
2022-12-19T20:01:40.229Z,76.62
2022-12-19T20:04:08.109Z,76.17
2022-12-19T20:06:36.211Z,76.21
2022-12-19T20:09:04.364Z,76.31
2022-12-19T20:11:32.271Z,76.05
2022-12-19T20:14:00.072Z,76.07
2022-12-19T20:16:28.195Z,75.87
2022-12-19T20:18:56.018Z,76.01
2022-12-19T20:21:24.721Z,76.17
2022-12-19T20:23:56.664Z,76.02
2022-12-19T20:26:24.522Z,76.05
2022-12-19T20:28:52.363Z,76.92
2022-12-19T20:31:23.150Z,76.92
2022-12-19T20:33:53.581Z,78.22
2022-12-19T20:36:22.625Z,78.70
2022-12-19T20:38:50.816Z,78.36
2022-12-19T20:41:19.421Z,77.58
2022-12-19T20:43:48.153Z,77.18
2022-12-19T20:46:18.477Z,77.22
2022-12-19T20:48:47.745Z,77.25
2022-12-19T20:51:16.727Z,77.47
2022-12-19T20:53:45.045Z,77.30
2022-12-19T20:56:17.619Z,77.42
2022-12-19T20:58:46.204Z,77.56
2022-12-19T21:01:18.305Z,77.43
2022-12-19T21:03:48.296Z,77.51
2022-12-19T21:06:19.803Z,77.42
2022-12-19T21:08:48.354Z,77.83
2022-12-19T21:11:16.236Z,77.84
2022-12-19T21:13:44.675Z,77.66
2022-12-19T21:16:16.448Z,77.42
2022-12-19T21:18:45.893Z,77.47
2022-12-19T21:21:18.099Z,77.23
2022-12-19T21:23:46.157Z,77.28
2022-12-19T21:26:14.147Z,77.19
2022-12-19T21:28:42.067Z,77.56
2022-12-19T21:31:25.049Z,77.36
2022-12-19T21:33:55.487Z,77.31
2022-12-19T21:36:25.089Z,76.99
2022-12-19T21:38:55.900Z,76.98
2022-12-19T21:41:24.119Z,77.10
2022-12-19T21:43:54.125Z,77.49
2022-12-19T21:46:26.513Z,77.29
2022-12-19T21:48:56.186Z,77.22
2022-12-19T21:51:27.988Z,77.26
2022-12-19T21:53:58.277Z,77.25
2022-12-19T21:56:31.986Z,77.13
2022-12-19T21:59:03.209Z,77.25
2022-12-19T22:01:32.724Z,77.11
2022-12-19T22:04:03.474Z,77.03
2022-12-19T22:06:33.747Z,76.85
2022-12-19T22:09:02.749Z,76.70
2022-12-19T22:11:31.349Z,76.35
2022-12-19T22:14:01.015Z,75.98
2022-12-19T22:16:29.264Z,75.88
2022-12-19T22:18:57.443Z,76.09
2022-12-19T22:21:25.728Z,75.52
2022-12-19T22:23:58.364Z,75.48
2022-12-19T22:26:28.827Z,75.36
2022-12-19T22:28:57.893Z,75.28
2022-12-19T22:31:34.607Z,75.17
2022-12-19T22:34:05.777Z,74.83
2022-12-19T22:36:35.954Z,74.67
2022-12-19T22:39:09.034Z,75.05
2022-12-19T22:41:38.280Z,75.77
2022-12-19T22:44:06.779Z,75.85
2022-12-19T22:46:37.044Z,75.48
2022-12-19T22:49:07.328Z,75.65
2022-12-19T22:51:36.963Z,77.09
2022-12-19T22:54:05.800Z,78.60
2022-12-19T22:56:34.699Z,79.33
2022-12-19T22:59:06.144Z,78.46
2022-12-19T23:01:38.125Z,77.81
2022-12-19T23:04:08.199Z,77.88
2022-12-19T23:06:37.674Z,77.86
2022-12-19T23:09:08.508Z,77.41
2022-12-19T23:11:39.012Z,77.77
2022-12-19T23:14:10.050Z,77.41
2022-12-19T23:16:37.969Z,77.59
2022-12-19T23:19:06.634Z,77.66
2022-12-19T23:21:35.269Z,78.40
2022-12-19T23:24:03.432Z,78.47
2022-12-19T23:26:35.589Z,78.23
2022-12-19T23:29:07.353Z,78.61
2022-12-19T23:31:38.629Z,78.84
2022-12-19T23:34:06.482Z,79.06
2022-12-19T23:39:22.293Z,78.91
2022-12-19T23:41:50.165Z,79.40
2022-12-19T23:44:18.168Z,79.16
2022-12-19T23:46:46.039Z,81.40
2022-12-19T23:49:14.218Z,81.99
2022-12-19T23:51:42.089Z,81.37
2022-12-19T23:54:10.047Z,82.49
2022-12-19T23:56:37.886Z,83.76
2022-12-19T23:59:05.872Z,82.01
